Accueil
METAR-TAF:

METAR-TAF

Aéroports :

Oberpfaffenhofen, Allemagne

latitude: 48-05N, longitude: 011-17E, altitude: 600 m

Observation

Le bulletin a été fait il y a 44 minutes, à 10:20 UTC
Vent 8 kt de sud/sud-est
Température 11°C
Humidité 50%
Pression 1002 hPa
Visibilité 10 km ou plus

METAR: EDMO 291020Z AUTO 15008KT 9999 // FEW075/// BKN088/// BKN130/// 11/01 Q1002

Heure: 12:04 (11:04 UTC)

Prévision

Le bulletin a été fait il y a 21 heures et 4 minutes, à 14:00 UTC
Prévision valable du 28 à 15 UTC au 28 à 24 UTC
Vent 8 kt de ouest/sud-ouest
Visibilité 10 km ou plus
Nuages épars à une hauteur de 4000 ft
Evoluant progressivement
du 28 à 16 UTC au 28 à 18 UTC
Vent 4 kt de sud

TAF: EDMO 281400Z 2815/2824 25008KT 9999 SCT040 BECMG 2816/2818 18004KT

Observations et prévisions météorologiques de plus de 4000 aéroports (messages METAR et TAF).

Les stations disponibles sont représentées par des disques jaunes et rouges sur la carte.

Passer la souris dessus pour voir le nom de la station.

Cliquer dessus pour voir les observations et prévisions météorologiques.

Pour changer de carte: cliquez sur les boutons verts avec une croix noire pour zoomer, sur le bouton vert avec un tiret pour effectuer un zoom arrière, ou sur les flèches vertes pour les cartes adjacentes.


METAR-TAF: